Time;durP1;ratioP1;P1;durP2;ratioP2;P2;SDS_P1;SDS_P2;PMS_P1;PMS_P2;Temp;Humidity;BMP_temperature;BMP_pressure;BME280_temperature;BME280_humidity;BME280_pressure;Samples;Min_cycle;Max_cycle;Signal;HPM_P1;HPM_P2
2023/09/15 04:02:29;;;;;;;12.33;5.27;;;;;;;16.47;100.00;100792.59;6157624;28;20177;-80
2023/09/15 04:05:35;;;;;;;8.02;4.93;;;;;;;16.35;100.00;100806.97;5242748;28;33993;-84
2023/09/15 04:08:38;;;;;;;9.98;5.97;;;;;;;16.30;100.00;100786.72;5218187;34;34656;-84
2023/09/15 04:11:43;;;;;;;9.10;5.78;;;;;;;16.36;100.00;100793.19;5240186;34;33895;-84
2023/09/15 04:14:45;;;;;;;8.23;6.00;;;;;;;16.33;100.00;100808.03;5243387;34;34944;-84
2023/09/15 04:17:49;;;;;;;9.50;5.30;;;;;;;16.45;100.00;100804.72;5247578;33;34493;-84
2023/09/15 04:20:53;;;;;;;8.00;5.72;;;;;;;16.59;100.00;100805.59;5246689;33;34948;-85
2023/09/15 04:23:56;;;;;;;8.63;5.82;;;;;;;16.59;100.00;100808.31;5249773;33;33825;-84
2023/09/15 04:26:59;;;;;;;9.52;6.15;;;;;;;16.73;100.00;100812.69;5256824;33;33746;-84
2023/09/15 04:30:03;;;;;;;9.80;5.93;;;;;;;16.71;100.00;100809.38;5244259;33;34502;-85
2023/09/15 04:33:06;;;;;;;7.97;5.60;;;;;;;16.70;100.00;100805.81;5244234;33;34005;-84
2023/09/15 04:36:09;;;;;;;9.05;6.07;;;;;;;16.75;100.00;100800.56;5244014;33;33961;-84
2023/09/15 04:39:13;;;;;;;7.95;5.18;;;;;;;16.84;100.00;100801.22;5244093;33;34459;-84
2023/09/15 04:42:16;;;;;;;7.35;5.45;;;;;;;16.89;100.00;100800.63;5244085;33;34696;-84
2023/09/15 04:45:19;;;;;;;7.80;4.75;;;;;;;16.92;100.00;100800.19;5243912;33;34625;-84
2023/09/15 04:48:23;;;;;;;6.97;4.95;;;;;;;16.99;100.00;100795.56;5256580;33;34595;-84
2023/09/15 04:51:26;;;;;;;9.23;4.47;;;;;;;17.06;100.00;100798.31;5244275;33;34543;-84
2023/09/15 04:54:29;;;;;;;6.55;4.55;;;;;;;17.08;100.00;100805.22;5243806;33;34690;-84
2023/09/15 04:57:32;;;;;;;10.25;5.15;;;;;;;17.21;100.00;100809.81;5243719;33;34941;-84
2023/09/15 05:00:35;;;;;;;8.25;4.53;;;;;;;17.34;100.00;100803.50;5243915;33;34047;-84
2023/09/15 05:03:39;;;;;;;7.90;4.60;;;;;;;17.48;100.00;100796.97;5243589;33;33754;-84
2023/09/15 05:06:42;;;;;;;8.20;4.95;;;;;;;17.57;100.00;100787.53;5242702;33;34078;-84
2023/09/15 05:09:46;;;;;;;5.32;4.30;;;;;;;17.71;100.00;100799.22;5241728;33;34576;-84
2023/09/15 05:12:49;;;;;;;6.47;4.05;;;;;;;17.80;100.00;100802.59;5241404;33;33986;-85
2023/09/15 05:15:51;;;;;;;6.35;4.25;;;;;;;17.85;100.00;100805.50;5230194;33;33467;-85
2023/09/15 05:18:55;;;;;;;5.18;4.35;;;;;;;17.99;100.00;100807.13;5241669;33;34169;-85
2023/09/15 05:21:58;;;;;;;5.30;4.25;;;;;;;18.09;100.00;100812.09;5230190;33;33720;-84
2023/09/15 05:25:04;;;;;;;7.28;4.75;;;;;;;18.34;100.00;100813.03;5241438;33;34606;-84
2023/09/15 05:28:09;;;;;;;8.98;5.70;;;;;;;18.39;100.00;100812.34;5241619;33;33829;-84
2023/09/15 05:31:12;;;;;;;6.87;4.90;;;;;;;18.39;100.00;100815.09;5241327;33;33898;-84
2023/09/15 05:34:16;;;;;;;7.78;4.70;;;;;;;18.43;100.00;100821.78;5254181;33;34564;-84
2023/09/15 05:37:19;;;;;;;6.87;5.50;;;;;;;18.42;100.00;100813.81;5252935;33;34189;-84
2023/09/15 05:40:22;;;;;;;6.10;5.28;;;;;;;18.30;100.00;100824.56;5253160;33;33468;-84
2023/09/15 05:43:26;;;;;;;8.00;5.78;;;;;;;18.21;100.00;100823.16;5229210;33;33757;-84
2023/09/15 05:46:29;;;;;;;8.60;6.22;;;;;;;18.06;100.00;100827.00;5227931;33;34197;-84
2023/09/15 05:49:32;;;;;;;10.63;5.78;;;;;;;17.97;100.00;100836.47;5241188;33;33565;-85
2023/09/15 05:52:35;;;;;;;7.40;5.70;;;;;;;17.87;100.00;100830.63;5241053;33;33390;-85
2023/09/15 05:55:38;;;;;;;13.43;6.47;;;;;;;17.85;100.00;100828.12;5240422;33;33504;-88
2023/09/15 05:58:41;;;;;;;7.45;5.65;;;;;;;17.82;100.00;100827.72;5240959;33;34666;-89
2023/09/15 06:01:47;;;;;;;9.95;6.18;;;;;;;17.74;100.00;100831.47;5239582;33;33866;-89
2023/09/15 06:04:51;;;;;;;7.43;5.82;;;;;;;17.78;100.00;100830.03;5238443;33;33664;-85
2023/09/15 06:07:54;;;;;;;7.07;4.93;;;;;;;17.79;100.00;100834.44;5253340;33;33760;-85
2023/09/15 06:11:00;;;;;;;8.57;6.55;;;;;;;17.96;100.00;100828.50;5244924;33;33899;-85
2023/09/15 06:14:03;;;;;;;15.57;6.20;;;;;;;18.42;100.00;100822.00;5230448;33;34682;-85
2023/09/15 06:17:06;;;;;;;9.57;6.55;;;;;;;18.90;100.00;100835.16;5230177;33;34311;-85
2023/09/15 06:20:09;;;;;;;7.85;5.47;;;;;;;19.15;100.00;100833.25;5241104;33;33951;-85
2023/09/15 06:23:12;;;;;;;10.70;6.47;;;;;;;19.31;100.00;100831.03;5240389;33;33846;-83
2023/09/15 06:26:15;;;;;;;9.57;6.85;;;;;;;19.41;100.00;100831.34;5231203;33;34551;-83
2023/09/15 06:29:18;;;;;;;8.43;5.82;;;;;;;19.55;100.00;100838.34;5242227;33;33425;-83
2023/09/15 06:32:21;;;;;;;10.43;5.28;;;;;;;19.46;100.00;100839.69;5253995;33;34500;-83
2023/09/15 06:35:25;;;;;;;11.00;6.43;;;;;;;19.56;100.00;100837.25;5240560;33;33679;-83
2023/09/15 06:38:31;;;;;;;8.50;5.95;;;;;;;19.75;100.00;100845.53;5240748;33;34745;-83
2023/09/15 06:41:34;;;;;;;8.80;5.78;;;;;;;19.94;100.00;100847.19;5229506;33;33955;-83
2023/09/15 06:44:37;;;;;;;7.65;5.12;;;;;;;20.09;100.00;100847.63;5241214;33;34617;-83
2023/09/15 06:47:40;;;;;;;8.57;5.68;;;;;;;20.10;100.00;100851.22;5246988;33;33841;-83
2023/09/15 06:50:43;;;;;;;10.23;5.82;;;;;;;20.07;100.00;100840.72;5233012;33;33818;-83
2023/09/15 06:53:46;;;;;;;8.57;5.85;;;;;;;20.06;100.00;100841.78;5258530;33;34342;-83
2023/09/15 06:56:50;;;;;;;7.50;5.62;;;;;;;20.13;100.00;100839.81;5230916;33;33758;-83
2023/09/15 06:59:53;;;;;;;8.88;5.43;;;;;;;20.37;100.00;100835.28;5255429;33;33449;-83
2023/09/15 07:02:56;;;;;;;7.10;5.20;;;;;;;20.47;100.00;100840.19;5240201;33;33548;-83
2023/09/15 07:06:00;;;;;;;10.57;5.22;;;;;;;20.50;100.00;100845.19;5240369;33;33672;-83
2023/09/15 07:09:03;;;;;;;8.65;5.15;;;;;;;20.59;100.00;100838.34;5228508;33;34834;-83
2023/09/15 07:12:06;;;;;;;6.80;4.87;;;;;;;20.77;100.00;100840.22;5253438;33;33838;-83
2023/09/15 07:15:09;;;;;;;8.02;5.37;;;;;;;20.83;100.00;100842.03;5252958;33;34562;-83
2023/09/15 07:18:12;;;;;;;6.20;4.82;;;;;;;20.91;100.00;100841.66;5241147;33;33582;-83
2023/09/15 07:21:15;;;;;;;8.30;5.20;;;;;;;20.97;100.00;100840.75;5255371;33;33849;-83
2023/09/15 07:24:18;;;;;;;6.90;4.80;;;;;;;21.10;100.00;100844.31;5231550;33;34534;-83
2023/09/15 07:27:23;;;;;;;6.93;5.03;;;;;;;21.30;100.00;100842.09;5243494;33;34888;-83
2023/09/15 07:30:26;;;;;;;5.95;4.20;;;;;;;21.42;100.00;100845.69;5254924;33;33832;-83
2023/09/15 07:33:29;;;;;;;5.40;4.30;;;;;;;21.58;100.00;100848.75;5231626;33;33792;-83
2023/09/15 07:36:33;;;;;;;4.37;3.87;;;;;;;21.68;100.00;100849.84;5256677;33;34643;-82
2023/09/15 07:39:35;;;;;;;4.93;3.95;;;;;;;21.84;100.00;100855.66;5230862;33;34793;-82
2023/09/15 07:42:39;;;;;;;5.60;3.85;;;;;;;21.87;100.00;100866.12;5231136;33;34861;-82
2023/09/15 07:45:41;;;;;;;5.75;4.22;;;;;;;22.03;100.00;100854.44;5254744;33;35399;-81
2023/09/15 07:48:46;;;;;;;5.72;3.40;;;;;;;22.06;100.00;100859.44;5231293;33;34455;-81
2023/09/15 07:51:50;;;;;;;4.32;3.03;;;;;;;22.06;100.00;100859.44;5224192;33;33952;-81
2023/09/15 07:54:53;;;;;;;3.55;3.12;;;;;;;22.12;99.38;100863.94;5241856;33;34448;-81
2023/09/15 07:57:56;;;;;;;3.75;3.08;;;;;;;22.42;94.50;100850.03;5228754;33;33790;-81
2023/09/15 08:01:00;;;;;;;3.08;2.80;;;;;;;22.71;95.13;100854.69;5244791;33;33808;-81
2023/09/15 08:04:05;;;;;;;3.53;3.12;;;;;;;23.04;99.56;100852.00;5243259;33;33544;-81
2023/09/15 08:07:10;;;;;;;4.15;2.97;;;;;;;23.12;96.52;100849.94;5254927;33;33861;-85
2023/09/15 08:10:14;;;;;;;5.97;3.22;;;;;;;23.13;89.75;100844.16;5241661;33;33539;-85
2023/09/15 08:13:17;;;;;;;2.90;2.70;;;;;;;23.05;89.22;100848.19;5241809;33;33850;-85
2023/09/15 08:16:20;;;;;;;6.82;3.12;;;;;;;23.19;89.08;100845.91;5231244;33;35047;-82
2023/09/15 08:19:23;;;;;;;5.70;3.28;;;;;;;23.07;87.96;100837.75;5229718;33;34194;-82
2023/09/15 08:22:27;;;;;;;4.62;3.25;;;;;;;23.18;90.03;100838.78;5241197;33;33405;-82
2023/09/15 08:25:30;;;;;;;5.35;3.70;;;;;;;23.24;86.53;100836.94;5240166;33;34222;-82
2023/09/15 08:28:33;;;;;;;3.22;2.92;;;;;;;23.08;86.96;100828.47;5240439;33;34449;-82
2023/09/15 08:31:36;;;;;;;5.78;3.37;;;;;;;23.15;89.58;100831.03;5253342;33;33587;-81
2023/09/15 08:34:41;;;;;;;3.95;3.33;;;;;;;23.21;90.05;100832.78;5228765;33;34680;-82
2023/09/15 08:37:45;;;;;;;5.40;3.30;;;;;;;23.14;88.39;100836.75;5220853;33;33965;-82
2023/09/15 08:40:51;;;;;;;7.43;3.15;;;;;;;23.23;90.00;100835.28;5253895;33;35303;-83
2023/09/15 08:43:55;;;;;;;3.15;2.95;;;;;;;23.48;89.32;100835.66;5254896;33;33721;-82
2023/09/15 08:47:05;;;;;;;4.00;3.12;;;;;;;23.71;89.44;100826.38;5254067;33;33439;-81
2023/09/15 08:50:09;;;;;;;3.62;3.33;;;;;;;23.64;84.43;100824.91;5258367;33;34144;-81
2023/09/15 08:53:12;;;;;;;3.35;2.78;;;;;;;23.63;83.64;100823.22;5241786;33;34420;-82
2023/09/15 08:56:15;;;;;;;5.05;2.60;;;;;;;23.75;85.40;100827.56;5253602;33;33731;-82
2023/09/15 08:59:19;;;;;;;3.30;2.67;;;;;;;24.03;80.02;100828.44;5253411;33;33773;-82
2023/09/15 09:02:24;;;;;;;3.40;2.40;;;;;;;24.24;80.68;100817.69;5240139;33;34015;-81
2023/09/15 09:05:30;;;;;;;3.90;2.85;;;;;;;23.92;75.50;100830.22;5240594;33;33900;-82
2023/09/15 09:08:34;;;;;;;4.95;3.35;;;;;;;24.13;78.66;100828.59;5239441;33;34227;-82
2023/09/15 09:11:37;;;;;;;3.08;2.83;;;;;;;24.00;78.94;100823.47;5238704;33;34019;-81
2023/09/15 09:14:43;;;;;;;3.30;3.00;;;;;;;23.72;78.47;100824.47;5251672;33;34280;-81
2023/09/15 09:17:46;;;;;;;3.47;2.50;;;;;;;23.41;79.76;100825.94;5239598;33;34600;-81
2023/09/15 09:20:50;;;;;;;4.05;2.28;;;;;;;23.63;79.09;100829.53;5238417;33;34235;-81
2023/09/15 09:23:55;;;;;;;2.50;2.30;;;;;;;23.96;74.84;100830.56;5253718;33;33981;-81
2023/09/15 09:26:58;;;;;;;2.67;2.17;;;;;;;24.28;75.23;100827.94;5240020;33;33773;-81
2023/09/15 09:30:03;;;;;;;3.12;2.22;;;;;;;24.40;73.78;100827.78;5240802;33;33932;-81
2023/09/15 09:33:08;;;;;;;4.12;2.37;;;;;;;24.73;71.33;100836.94;5246097;33;33964;-81
2023/09/15 09:36:13;;;;;;;3.95;2.47;;;;;;;25.14;74.86;100829.06;5258705;33;34133;-80
2023/09/15 09:39:20;;;;;;;3.40;3.07;;;;;;;25.31;72.21;100827.81;5253287;33;33526;-81
2023/09/15 09:42:24;;;;;;;3.28;2.40;;;;;;;25.04;73.62;100816.03;5253333;33;34142;-81
2023/09/15 09:45:30;;;;;;;4.53;2.58;;;;;;;24.66;74.37;100824.22;5254077;33;35077;-81
2023/09/15 09:48:37;;;;;;;2.90;2.60;;;;;;;24.34;75.17;100818.62;5254233;33;33777;-81
2023/09/15 09:51:40;;;;;;;4.40;2.75;;;;;;;24.13;76.88;100828.59;5252269;33;34471;-81
2023/09/15 09:54:44;;;;;;;4.45;2.75;;;;;;;23.94;77.29;100825.31;5228401;33;33219;-84
2023/09/15 09:57:47;;;;;;;2.80;2.53;;;;;;;23.99;76.88;100819.87;5240945;33;33749;-81
2023/09/15 10:00:51;;;;;;;2.90;2.58;;;;;;;24.44;76.00;100828.94;5253275;33;35022;-81
2023/09/15 10:03:54;;;;;;;4.10;2.90;;;;;;;24.89;71.83;100822.22;5252638;33;33466;-81
2023/09/15 10:06:57;;;;;;;4.32;2.40;;;;;;;24.86;72.80;100823.59;5240463;33;33775;-81
2023/09/15 10:10:03;;;;;;;2.60;2.37;;;;;;;24.43;69.76;100822.63;5239916;33;33810;-81
2023/09/15 10:13:06;;;;;;;2.62;2.42;;;;;;;24.15;71.99;100825.56;5252870;33;34807;-81
2023/09/15 10:16:11;;;;;;;2.25;2.03;;;;;;;23.92;71.47;100819.22;5229694;33;34631;-81
2023/09/15 10:19:16;;;;;;;2.78;2.10;;;;;;;23.80;71.42;100824.03;5228753;33;33833;-81
2023/09/15 10:22:20;;;;;;;2.60;2.40;;;;;;;23.77;74.37;100825.38;5240187;33;34492;-81
2023/09/15 10:25:24;;;;;;;3.92;2.30;;;;;;;24.26;75.38;100821.84;5229111;33;35060;-81
2023/09/15 10:28:29;;;;;;;2.45;2.20;;;;;;;24.92;66.91;100824.44;5240581;33;33808;-81
2023/09/15 10:31:45;;;;;;;3.55;2.25;;;;;;;25.80;70.95;100818.47;5252481;33;33478;-81
2023/09/15 10:34:51;;;;;;;3.10;2.05;;;;;;;26.60;62.03;100809.94;5237207;33;33860;-81
2023/09/15 10:37:59;;;;;;;3.92;2.10;;;;;;;26.79;61.00;100805.50;5238732;33;33775;-81
2023/09/15 10:41:05;;;;;;;1.65;1.55;;;;;;;27.35;60.76;100799.97;5253607;33;33805;-81
2023/09/15 10:44:09;;;;;;;2.15;1.80;;;;;;;27.69;55.35;100807.63;5240479;33;33803;-81
2023/09/15 10:47:15;;;;;;;1.62;1.52;;;;;;;27.64;53.73;100802.09;5240478;33;34538;-81
2023/09/15 10:50:29;;;;;;;2.03;1.85;;;;;;;27.45;54.40;100801.88;5253578;33;34187;-81
2023/09/15 10:53:45;;;;;;;4.37;1.83;;;;;;;26.80;54.06;100804.41;5236148;34;33855;-81
2023/09/15 10:56:48;;;;;;;1.70;1.60;;;;;;;26.19;56.50;100801.53;5236211;34;34214;-81
2023/09/15 10:59:54;;;;;;;2.60;1.70;;;;;;;26.05;59.21;100797.62;5223279;34;33811;-81
2023/09/15 11:02:57;;;;;;;2.58;2.08;;;;;;;25.85;58.58;100801.94;5232830;33;34009;-81
2023/09/15 11:06:02;;;;;;;3.12;2.10;;;;;;;25.66;57.95;100798.81;5242291;33;34016;-81
2023/09/15 11:09:06;;;;;;;2.65;1.80;;;;;;;26.02;56.91;100799.81;5253578;33;33931;-82
2023/09/15 11:12:12;;;;;;;2.22;1.67;;;;;;;27.21;54.82;100792.56;5244456;33;33963;-81
2023/09/15 11:15:15;;;;;;;2.42;1.90;;;;;;;28.30;49.30;100791.88;5257153;33;34121;-81
2023/09/15 11:18:18;;;;;;;2.30;1.75;;;;;;;29.18;46.67;100793.72;5247106;33;33892;-81
2023/09/15 11:21:23;;;;;;;2.58;1.80;;;;;;;28.82;49.40;100788.47;5260231;33;34310;-81
2023/09/15 11:24:26;;;;;;;3.65;2.15;;;;;;;28.27;51.48;100794.09;5249826;33;34028;-85
2023/09/15 11:27:32;;;;;;;2.20;2.00;;;;;;;27.42;55.29;100793.34;5236012;33;33790;-85
2023/09/15 11:30:36;;;;;;;2.20;2.00;;;;;;;29.25;53.00;100790.59;5259478;33;33881;-85
2023/09/15 11:33:43;;;;;;;2.17;2.00;;;;;;;29.31;50.41;100789.44;5237631;33;33874;-82
2023/09/15 11:36:49;;;;;;;2.30;2.10;;;;;;;27.91;53.02;100784.34;5264161;33;35268;-80
2023/09/15 11:39:52;;;;;;;2.40;2.10;;;;;;;26.80;56.32;100781.50;5258139;33;33815;-80
2023/09/15 11:43:01;;;;;;;2.35;2.10;;;;;;;27.07;55.88;100782.03;5247555;33;33961;-80
2023/09/15 11:46:07;;;;;;;2.00;1.90;;;;;;;28.85;50.65;100779.59;5244073;33;35461;-80
2023/09/15 11:49:11;;;;;;;1.87;1.77;;;;;;;30.78;45.78;100777.50;5232905;33;34437;-80
2023/09/15 11:52:15;;;;;;;1.58;1.48;;;;;;;32.18;40.13;100769.00;5237938;33;32580;-80
2023/09/15 11:55:22;;;;;;;1.52;1.42;;;;;;;34.25;36.36;100770.41;5236278;33;33615;-80
2023/09/15 11:58:25;;;;;;;1.58;1.48;;;;;;;34.82;33.54;100761.06;5238357;33;34674;-80
2023/09/15 12:01:31;;;;;;;1.70;1.60;;;;;;;36.48;31.11;100756.25;5238818;33;35251;-81
2023/09/15 12:04:34;;;;;;;1.55;1.45;;;;;;;36.60;29.28;100747.09;5240705;33;33933;-80
2023/09/15 12:07:38;;;;;;;2.50;1.60;;;;;;;37.83;27.24;100751.72;5233332;34;33437;-80
2023/09/15 12:10:42;;;;;;;1.40;1.30;;;;;;;38.24;28.73;100751.78;5224366;33;34294;-81
2023/09/15 12:13:54;;;;;;;1.60;1.50;;;;;;;38.65;25.16;100749.75;5229996;33;33376;-81
2023/09/15 12:16:58;;;;;;;3.20;1.95;;;;;;;39.89;24.36;100743.69;5252982;33;34159;-81
2023/09/15 12:20:04;;;;;;;2.03;1.80;;;;;;;40.13;23.88;100737.00;5255588;33;34053;-81
2023/09/15 12:23:15;;;;;;;1.60;1.50;;;;;;;37.98;26.62;100741.78;5254733;33;34159;-81
2023/09/15 12:26:18;;;;;;;2.72;1.52;;;;;;;34.78;29.82;100741.31;5242471;33;33504;-80
2023/09/15 12:29:22;;;;;;;1.62;1.52;;;;;;;32.03;34.76;100745.06;5242521;33;34867;-79
2023/09/15 12:32:30;;;;;;;1.87;1.60;;;;;;;30.29;38.09;100739.94;5230004;33;33882;-80
2023/09/15 12:35:39;;;;;;;1.98;1.87;;;;;;;29.09;41.85;100742.81;5256900;33;33811;-80
2023/09/15 12:38:42;;;;;;;2.70;1.73;;;;;;;28.00;46.13;100730.88;5251124;33;34036;-80
2023/09/15 12:41:45;;;;;;;2.65;1.90;;;;;;;27.34;46.14;100731.94;5242127;33;33684;-80
2023/09/15 12:44:56;;;;;;;2.22;2.00;;;;;;;26.93;47.33;100728.41;5233548;33;33820;-80
2023/09/15 12:48:00;;;;;;;2.87;1.80;;;;;;;26.80;47.22;100720.72;5228992;33;35788;-80
2023/09/15 12:51:04;;;;;;;2.60;1.50;;;;;;;26.44;48.14;100727.03;5229149;33;34519;-80
2023/09/15 12:54:07;;;;;;;2.30;1.87;;;;;;;26.34;48.52;100724.25;5230407;33;33590;-84
2023/09/15 12:57:10;;;;;;;5.53;1.80;;;;;;;26.00;50.11;100722.00;5232964;33;33557;-84
2023/09/15 13:00:15;;;;;;;1.60;1.50;;;;;;;25.83;49.62;100723.31;5243530;33;34070;-85
2023/09/15 13:03:21;;;;;;;3.80;1.85;;;;;;;25.76;50.03;100718.84;5255435;33;33384;-81
2023/09/15 13:06:25;;;;;;;2.37;1.90;;;;;;;25.84;49.90;100727.75;5253625;33;33972;-80
2023/09/15 13:09:30;;;;;;;1.75;1.65;;;;;;;25.97;50.65;100721.72;5242044;33;33446;-81
2023/09/15 13:12:34;;;;;;;1.87;1.70;;;;;;;26.35;48.22;100717.63;5255450;33;34511;-81
2023/09/15 13:15:37;;;;;;;1.90;1.70;;;;;;;26.97;46.49;100710.19;5240138;33;33746;-80
2023/09/15 13:18:40;;;;;;;2.30;1.67;;;;;;;27.52;45.96;100711.13;5229650;33;34147;-80
2023/09/15 13:21:44;;;;;;;1.58;1.48;;;;;;;29.18;41.72;100710.53;5255758;33;33492;-80
2023/09/15 13:24:48;;;;;;;3.12;1.85;;;;;;;32.76;33.72;100701.22;5242955;33;34353;-81
2023/09/15 13:27:50;;;;;;;3.47;1.60;;;;;;;34.48;32.13;100699.22;5255325;33;34325;-81
2023/09/15 13:30:53;;;;;;;1.48;1.37;;;;;;;36.23;28.49;100694.44;5243442;33;33907;-81
2023/09/15 13:33:57;;;;;;;1.52;1.40;;;;;;;37.39;26.84;100698.13;5242850;33;33559;-81
2023/09/15 13:37:00;;;;;;;3.85;1.80;;;;;;;37.75;25.96;100687.22;5230667;33;34676;-81
2023/09/15 13:40:04;;;;;;;1.55;1.45;;;;;;;38.16;25.63;100697.31;5254437;33;33909;-80
2023/09/15 13:43:08;;;;;;;1.17;1.10;;;;;;;37.27;26.30;100688.88;5244071;33;33774;-80
2023/09/15 13:46:11;;;;;;;1.70;1.60;;;;;;;37.70;24.70;100685.47;5227110;33;34103;-81
2023/09/15 13:49:15;;;;;;;2.20;1.37;;;;;;;37.96;25.22;100682.25;5233393;33;34202;-81
2023/09/15 13:52:18;;;;;;;1.73;1.62;;;;;;;38.11;25.21;100675.88;5220606;33;33885;-82
2023/09/15 13:55:22;;;;;;;1.33;1.10;;;;;;;35.51;27.72;100678.78;5253909;33;34136;-81
2023/09/15 13:58:40;;;;;;;1.85;1.60;;;;;;;34.28;29.28;100675.56;5253383;33;32437;-81
2023/09/15 14:01:43;;;;;;;1.90;1.75;;;;;;;32.82;32.24;100676.81;5218988;33;33853;-81
2023/09/15 14:04:47;;;;;;;1.62;1.52;;;;;;;31.94;33.03;100668.97;5240386;33;33868;-83
2023/09/15 14:07:50;;;;;;;2.17;1.83;;;;;;;32.08;33.17;100669.75;5242945;33;33409;-83
2023/09/15 14:10:54;;;;;;;1.67;1.58;;;;;;;31.28;34.96;100658.13;5255966;33;33948;-83
2023/09/15 14:13:57;;;;;;;1.80;1.70;;;;;;;30.45;35.98;100673.84;5256193;33;33800;-83
2023/09/15 14:17:00;;;;;;;1.70;1.60;;;;;;;29.90;36.67;100665.25;5253206;33;34235;-83
2023/09/15 14:20:04;;;;;;;1.73;1.62;;;;;;;29.36;37.80;100662.59;5222691;33;35378;-83
2023/09/15 14:23:07;;;;;;;2.00;1.50;;;;;;;28.75;38.52;100663.28;5256357;33;33857;-83
2023/09/15 14:26:10;;;;;;;2.47;1.98;;;;;;;28.51;38.40;100666.00;5256093;33;33918;-83
2023/09/15 14:29:13;;;;;;;1.83;1.73;;;;;;;28.50;39.67;100658.81;5230573;33;33868;-83
2023/09/15 14:32:16;;;;;;;1.95;1.77;;;;;;;27.82;40.45;100659.59;5241419;33;35049;-82
2023/09/15 14:35:21;;;;;;;1.80;1.70;;;;;;;27.36;42.30;100654.25;5229542;33;33305;-82
2023/09/15 14:38:23;;;;;;;1.92;1.65;;;;;;;27.09;43.99;100646.31;5239616;33;33929;-83
2023/09/15 14:41:27;;;;;;;3.40;2.03;;;;;;;26.99;44.09;100647.16;5253126;33;34028;-83
2023/09/15 14:44:30;;;;;;;1.45;1.35;;;;;;;26.86;44.11;100642.25;5229353;33;33873;-83
2023/09/15 14:47:33;;;;;;;2.50;1.80;;;;;;;26.59;45.19;100645.31;5240328;33;34953;-83
2023/09/15 14:50:36;;;;;;;2.08;1.90;;;;;;;26.38;47.17;100645.28;5240682;33;34883;-83
2023/09/15 14:53:39;;;;;;;2.30;2.10;;;;;;;26.12;46.26;100650.00;5240336;33;33836;-86
2023/09/15 14:56:42;;;;;;;3.30;1.77;;;;;;;25.97;47.84;100648.06;5240781;33;34572;-87
2023/09/15 14:59:45;;;;;;;1.90;1.80;;;;;;;25.90;48.23;100641.97;5218180;33;33469;-87
2023/09/15 15:02:48;;;;;;;2.70;1.80;;;;;;;25.65;47.34;100647.41;5240517;33;33659;-83
2023/09/15 15:05:51;;;;;;;2.90;2.40;;;;;;;25.64;48.02;100651.25;5229154;33;34534;-83
2023/09/15 15:08:54;;;;;;;3.08;2.08;;;;;;;25.54;48.20;100644.63;5240247;33;34651;-83
2023/09/15 15:11:57;;;;;;;2.17;1.98;;;;;;;25.58;48.05;100653.19;5228756;33;34638;-83
2023/09/15 15:15:00;;;;;;;2.92;2.05;;;;;;;25.45;48.88;100651.75;5253036;33;34604;-83
2023/09/15 15:18:03;;;;;;;2.53;2.30;;;;;;;25.55;48.41;100646.28;5223203;33;201180;-83
2023/09/15 15:21:07;;;;;;;2.50;1.90;;;;;;;25.65;46.96;100644.63;5242352;33;33586;-83
2023/09/15 15:24:11;;;;;;;1.95;1.85;;;;;;;25.64;48.51;100643.00;5243840;33;34531;-83
2023/09/15 15:27:13;;;;;;;2.42;1.80;;;;;;;25.45;48.95;100648.19;5253373;33;34671;-82
2023/09/15 15:30:17;;;;;;;2.20;2.00;;;;;;;25.47;49.26;100646.78;5240290;33;34627;-82
2023/09/15 15:33:20;;;;;;;3.25;2.00;;;;;;;25.44;49.29;100639.06;5229405;33;34744;-82
2023/09/15 15:36:23;;;;;;;2.30;2.10;;;;;;;25.49;48.86;100641.03;5243439;33;34077;-82
2023/09/15 15:39:26;;;;;;;2.67;2.40;;;;;;;25.49;49.07;100639.09;5245898;33;33654;-82
2023/09/15 15:42:29;;;;;;;2.37;2.15;;;;;;;25.46;48.13;100642.38;5262570;33;33990;-82
